Latest Weather Observations for Melbourne Airport

IDV60801

Issued at 8:31 am EST Sunday 1 May 2016 (issued every 30 minutes, with the page automatically refreshed every 10 minutes)

About weather observations | Map of weather stations | Latest weather observations for VIC | Other Formats
Station Details ID: 086282 Name: MELBOURNE AIRPORT Lat: -37.67 Lon: 144.83 Height: 113.4 m
Data from the previous 72 hours. | See also: Recent months at Melbourne Airport
Date/Time
EST
Temp
°C
App
Temp
°C
Dew
Point
Rel
Hum
%
Delta-T
°C
Wind Press
QNH
hPa
Press
MSL
hPa
Rain
since 9 am
mm
Dir
 
Spd
km/h
Gust
km/h
Spd
kts
Gust
kts
01/08:18am 13.9 6.2 7.2 64 3.3 WNW 37 56 20 30 1006.4 1006.3 6.4
01/08:00am 14.3 8.0 7.5 63 3.4 NW 30 43 16 23 1006.1 1006.0 6.4
01/07:30am 14.5 7.9 7.9 64 3.3 NNW 32 50 17 27 1005.1 1005.0 6.4
01/07:00am 14.7 8.3 8.4 66 3.2 NNW 32 52 17 28 1004.7 1004.6 6.4
01/06:30am 14.9 9.1 9.3 69 2.9 NNW 30 48 16 26 1004.2 1004.0 6.4
01/06:24am 14.9 9.1 9.5 70 2.8 NNW 30 48 16 26 1004.2 1004.0 6.4
01/06:00am 14.8 9.5 10.0 73 2.5 NNW 28 37 15 20 1004.1 1003.9 6.4
01/05:30am 14.9 11.2 10.2 73 2.5 NNW 20 32 11 17 1004.1 1003.9 6.4
01/05:00am 14.8 10.9 10.7 76 2.2 NNW 22 30 12 16 1004.1 1003.9 6.4
01/04:30am 14.5 10.4 11.3 81 1.7 N 24 32 13 17 1003.6 1003.4 6.4
01/04:00am 14.2 11.1 12.2 88 1.1 NNW 20 32 11 17 1003.7 1003.5 6.4
01/03:39am 14.4 9.0 12.2 87 1.2 NNW 32 50 17 27 1004.9 1004.8 6.0
01/03:30am 14.1 10.3 12.5 90 0.9 NNW 24 39 13 21 1004.5 1004.3 5.2
01/03:00am 14.4 7.0 12.4 88 1.1 NNW 43 76 23 41 1003.4 1003.2 2.8
01/02:47am 17.7 11.5 16.0 90 1.0 N 43 61 23 33 1003.4 1003.2 0.6
01/02:44am 18.1 11.6 15.7 86 1.4 N 44 61 24 33 1003.4 1003.2 0.2
01/02:30am 18.9 12.4 15.2 79 2.2 NNE 43 65 23 35 1002.2 1002.0 0.0
01/02:20am 18.8 12.4 15.4 80 2.0 N 43 61 23 33 1002.4 1002.2 0.0
01/02:00am 19.1 12.0 15.0 77 2.4 NNE 46 63 25 34 1003.7 1003.5 0.0
01/01:49am 19.2 13.0 15.0 76 2.5 NNE 41 61 22 33 1003.8 1003.6 0.0
01/01:30am 19.2 13.0 15.0 76 2.5 NNE 41 54 22 29 1004.6 1004.5 0.0
01/01:00am 18.9 13.3 15.4 80 2.1 N 39 54 21 29 1005.7 1005.6 0.0
01/12:30am 18.4 12.7 15.2 81 1.9 N 39 50 21 27 1006.0 1005.9 0.0
01/12:00am 18.7 12.0 15.1 79 2.1 N 44 61 24 33 1006.3 1006.2 0.0
 
Date/Time
EST
Temp
°C
App
Temp
°C
Dew
Point
Rel
Hum
%
Delta-T
°C
Wind Press
QNH
hPa
Press
MSL
hPa
Rain
since 9 am
mm
Dir
 
Spd
km/h
Gust
km/h
Spd
kts
Gust
kts
30/11:30pm 18.9 11.8 15.0 78 2.3 N 46 61 25 33 1006.9 1006.8 0.0
30/11:15pm 19.3 10.7 15.1 76 2.5 N 54 76 29 41 1007.3 1007.2 0.0
30/11:00pm 18.9 11.5 15.2 79 2.2 N 48 59 26 32 1007.7 1007.6 0.0
30/10:46pm 18.7 10.9 15.1 79 2.1 N 50 69 27 37 1008.0 1007.9 0.0
30/10:30pm 19.0 11.5 15.1 78 2.3 N 48 63 26 34 1008.1 1008.0 0.0
30/10:04pm 19.0 11.6 15.3 79 2.2 N 48 67 26 36 1008.6 1008.5 0.0
30/10:00pm 19.0 12.6 15.3 79 2.2 N 43 57 23 31 1008.8 1008.7 0.0
30/09:46pm 19.2 12.7 15.1 77 2.4 N 43 61 23 33 1009.1 1009.0 0.0
30/09:30pm 19.2 12.1 15.1 77 2.4 N 46 59 25 32 1008.9 1008.8 0.0
30/09:21pm 19.4 13.3 15.2 76 2.5 N 41 59 22 32 1009.4 1009.2 0.0
30/09:00pm 19.2 14.6 15.0 76 2.5 N 33 44 18 24 1009.9 1009.7 0.0
30/08:30pm 19.3 15.6 14.9 75 2.6 N 28 41 15 22 1010.2 1010.0 0.0
30/08:00pm 19.1 16.2 15.0 77 2.4 NNE 24 32 13 17 1010.4 1010.2 0.0
30/07:30pm 19.0 16.1 15.1 78 2.3 N 24 33 13 18 1010.4 1010.2 0.0
30/07:00pm 19.1 16.2 15.2 78 2.3 NNE 24 32 13 17 1010.3 1010.1 0.0
30/06:30pm 18.7 17.1 15.0 79 2.2 N 17 26 9 14 1010.5 1010.3 0.0
30/06:00pm 19.2 16.5 14.6 74 2.7 N 22 30 12 16 1010.7 1010.5 0.0
30/05:30pm 19.9 15.6 14.4 70 3.2 N 30 41 16 22 1010.8 1010.6 0.0
30/05:00pm 20.9 16.9 14.0 64 4.0 N 28 37 15 20 1010.9 1010.7 0.0
30/04:30pm 21.6 16.2 13.9 61 4.5 N 35 44 19 24 1010.8 1010.6 0.0
30/04:00pm 22.1 17.2 13.7 59 4.9 N 32 39 17 21 1011.0 1010.8 0.0
30/03:30pm 21.9 16.1 12.8 56 5.2 N 35 48 19 26 1011.1 1010.9 0.0
30/03:00pm 22.3 16.8 13.5 57 5.1 N 35 41 19 22 1011.0 1010.8 0.0
30/02:30pm 22.5 16.6 12.5 53 5.7 N 35 48 19 26 1011.4 1011.2 0.0
30/02:00pm 21.7 17.0 14.2 62 4.4 NNE 32 43 17 23 1011.7 1011.5 0.0
30/01:30pm 21.6 17.0 14.7 65 4.1 N 32 44 17 24 1012.0 1011.9 0.0
30/01:00pm 22.0 17.2 14.7 63 4.3 N 33 41 18 22 1012.5 1012.4 0.0
30/12:30pm 21.4 16.4 15.0 67 3.8 N 35 48 19 26 1013.0 1012.9 0.0
30/12:00pm 20.5 14.8 15.1 71 3.2 N 39 50 21 27 1013.4 1013.3 0.0
30/11:30am 20.4 15.7 14.8 70 3.3 N 33 41 18 22 1014.2 1014.1 0.0
30/11:00am 20.5 15.4 14.7 69 3.4 N 35 52 19 28 1014.4 1014.3 0.0
30/10:30am 20.2 15.5 14.8 71 3.2 N 33 48 18 26 1014.6 1014.5 0.0
30/10:00am 19.2 15.1 14.8 75 2.6 N 30 43 16 23 1014.9 1014.8 0.0
30/09:30am 19.5 15.8 14.9 75 2.7 N 28 37 15 20 1015.2 1015.1 0.0
30/09:00am 18.5 13.9 14.7 78 2.2 N 32 41 17 22 1015.2 1015.1 4.4
30/08:30am 17.9 13.8 14.8 82 1.8 N 30 39 16 21 1015.1 1015.0 4.4
30/08:00am 16.9 12.3 14.7 87 1.3 N 32 37 17 20 1015.0 1014.9 4.4
30/07:30am 16.5 12.6 14.4 87 1.2 N 28 33 15 18 1014.6 1014.5 4.4
30/07:00am 16.1 13.4 14.5 90 0.9 N 22 30 12 16 1014.2 1014.1 4.4
30/06:30am 16.2 12.4 14.6 90 0.9 N 28 33 15 18 1014.0 1013.9 4.4
30/06:00am 16.3 14.0 14.7 90 0.9 N 20 33 11 18 1014.0 1013.9 4.4
30/05:30am 16.2 13.7 14.1 87 1.2 N 20 30 11 16 1014.0 1013.9 4.4
30/05:00am 15.1 12.0 13.5 90 0.9 N 22 28 12 15 1013.8 1013.7 4.4
30/04:30am 16.4 13.4 13.8 84 1.5 N 22 28 12 15 1013.6 1013.5 4.4
30/04:00am 15.9 13.5 13.8 87 1.2 N 19 26 10 14 1013.4 1013.3 4.4
30/03:30am 16.1 12.7 13.8 86 1.3 N 24 37 13 20 1013.7 1013.6 4.4
30/03:00am 15.9 13.4 13.6 86 1.3 N 19 22 10 12 1013.9 1013.8 4.4
30/02:30am 17.0 13.3 13.8 81 1.8 N 26 32 14 17 1013.8 1013.7 4.4
30/02:00am 17.1 14.4 13.6 80 2.0 N 20 28 11 15 1013.8 1013.7 4.4
30/01:30am 15.4 14.1 13.6 89 1.0 N 13 17 7 9 1014.0 1013.9 4.4
30/01:00am 15.4 13.8 13.8 90 0.9 N 15 19 8 10 1013.8 1013.7 4.4
30/12:30am 15.7 14.1 13.8 88 1.1 N 15 22 8 12 1013.8 1013.7 4.4
30/12:00am 16.1 13.8 14.0 87 1.2 N 19 22 10 12 1014.0 1013.9 4.4
 
Date/Time
EST
Temp
°C
App
Temp
°C
Dew
Point
Rel
Hum
%
Delta-T
°C
Wind Press
QNH
hPa
Press
MSL
hPa
Rain
since 9 am
mm
Dir
 
Spd
km/h
Gust
km/h
Spd
kts
Gust
kts
29/11:30pm 15.9 12.7 14.3 90 0.9 N 24 30 13 16 1013.8 1013.7 4.4
29/11:00pm 16.6 13.6 14.7 88 1.1 N 24 30 13 16 1014.2 1014.1 4.4
29/10:30pm 16.4 13.4 14.8 90 0.9 N 24 39 13 21 1014.6 1014.5 4.4
29/10:00pm 16.9 13.5 14.7 87 1.3 N 26 35 14 19 1014.6 1014.5 4.4
29/09:30pm 16.7 12.2 14.8 88 1.1 N 32 50 17 27 1014.7 1014.6 4.4
29/09:21pm 17.0 12.5 14.8 87 1.3 N 32 50 17 27 1014.8 1014.7 4.4
29/09:00pm 16.8 12.2 14.7 87 1.2 N 32 41 17 22 1014.6 1014.5 4.4
29/08:30pm 16.7 12.4 14.4 86 1.3 N 30 39 16 21 1014.1 1014.0 4.4
29/08:00pm 16.7 12.5 14.6 87 1.2 N 30 35 16 19 1013.8 1013.7 4.4
29/07:30pm 16.6 12.7 14.3 86 1.3 N 28 37 15 20 1013.8 1013.7 4.4
29/07:00pm 16.8 14.0 14.2 85 1.5 N 22 32 12 17 1013.7 1013.6 4.4
29/06:38pm 16.6 12.6 14.0 84 1.5 N 28 46 15 25 1013.5 1013.4 4.4
29/06:30pm 16.5 14.0 14.0 85 1.4 N 20 30 11 16 1013.4 1013.3 4.4
29/06:00pm 16.7 14.2 14.1 85 1.5 N 20 26 11 14 1013.3 1013.2 4.4
29/05:30pm 17.7 12.1 13.3 75 2.5 N 35 48 19 26 1013.1 1013.0 4.4
29/05:00pm 17.4 12.7 14.3 82 1.8 N 32 39 17 21 1012.9 1012.8 4.4
29/04:30pm 17.6 14.7 15.0 85 1.5 N 24 33 13 18 1013.1 1013.0 4.4
29/04:00pm 17.5 14.8 14.7 83 1.6 NNE 22 32 12 17 1013.2 1013.1 4.4
29/03:30pm 16.9 14.7 14.3 85 1.5 NNE 19 30 10 16 1013.1 1013.0 4.4
29/03:00pm 16.5 15.0 14.2 86 1.3 NNE 15 19 8 10 1013.7 1013.6 4.4
29/02:30pm 16.8 14.3 14.0 83 1.6 NNE 20 39 11 21 1013.8 1013.7 4.4
29/02:00pm 16.2 14.0 14.8 91 0.8 NE 20 28 11 15 1014.0 1013.9 4.0
29/01:30pm 16.3 15.3 14.7 90 0.9 NE 13 22 7 12 1014.1 1014.0 3.2
29/01:00pm 16.3 15.7 14.7 90 0.9 NNE 11 19 6 10 1014.3 1014.2 2.4
29/12:30pm 16.5 14.4 14.6 88 1.1 NE 19 30 10 16 1014.1 1014.0 1.6
29/12:00pm 17.1 15.6 14.1 82 1.7 N 15 20 8 11 1015.0 1014.9 0.2
29/11:30am 17.9 14.5 13.7 76 2.4 NNW 24 35 13 19 1015.3 1015.2 0.0
29/11:00am 18.8 13.6 12.8 68 3.4 N 32 41 17 22 1015.4 1015.3 0.0
29/10:30am 19.1 14.8 12.1 64 3.9 N 26 32 14 17 1015.2 1015.1 0.0
29/10:00am 18.4 13.2 12.7 69 3.2 N 32 41 17 22 1015.0 1014.9 0.0
29/09:30am 17.3 13.0 13.2 77 2.3 N 28 35 15 19 1015.2 1015.1 0.0
29/09:00am 17.3 14.0 12.8 75 2.5 N 22 32 12 17 1015.7 1015.6 0.8
29/08:30am 16.8 12.8 12.9 78 2.2 N 26 39 14 21 1015.6 1015.5 0.6
29/08:00am 18.9 14.4 9.9 56 4.8 NNW 24 35 13 19 1015.9 1015.8 0.2
29/07:30am 19.8 12.1 8.8 49 5.8 N 39 50 21 27 1014.5 1014.4 0.2
29/07:00am 19.9 14.1 9.6 51 5.5 NNE 30 37 16 20 1014.2 1014.1 0.2
29/06:30am 19.6 13.1 8.8 49 5.7 N 33 43 18 23 1014.3 1014.2 0.2
29/06:00am 19.7 13.5 7.9 46 6.1 N 30 44 16 24 1014.7 1014.6 0.2
29/05:30am 20.0 13.8 7.8 45 6.3 N 30 41 16 22 1014.8 1014.7 0.2
29/05:00am 19.9 14.5 8.2 46 6.1 N 26 35 14 19 1014.9 1014.8 0.2
29/04:30am 19.2 13.5 8.5 50 5.6 N 28 33 15 18 1014.8 1014.7 0.2
29/04:00am 19.3 13.6 8.4 49 5.7 N 28 35 15 19 1015.0 1014.9 0.2
29/03:30am 19.5 13.0 8.1 47 5.9 N 32 37 17 20 1014.8 1014.7 0.2
29/03:00am 19.4 12.9 8.2 48 5.8 N 32 37 17 20 1014.8 1014.7 0.2
29/02:30am 19.6 13.5 8.3 48 5.9 N 30 37 16 20 1015.2 1015.1 0.2
29/02:00am 19.1 13.8 8.3 49 5.6 N 26 35 14 19 1015.5 1015.4 0.2
29/01:30am 17.6 13.8 9.0 57 4.5 N 19 28 10 15 1015.7 1015.6 0.2
29/01:00am 16.8 13.4 9.3 61 3.9 NNE 17 20 9 11 1015.8 1015.7 0.2
29/12:30am 16.2 12.9 10.8 70 2.9 NNE 19 32 10 17 1016.0 1015.9 0.2
29/12:00am 16.7 14.5 12.2 75 2.5 N 15 22 8 12 1016.2 1016.1 0.2
 
Date/Time
EST
Temp
°C
App
Temp
°C
Dew
Point
Rel
Hum
%
Delta-T
°C
Wind Press
QNH
hPa
Press
MSL
hPa
Rain
since 9 am
mm
Dir
 
Spd
km/h
Gust
km/h
Spd
kts
Gust
kts
28/11:30pm 15.9 14.7 12.8 82 1.7 NNE 11 13 6 7 1016.6 1016.5 0.2
28/11:00pm 16.2 15.3 12.6 79 2.0 NNE 9 11 5 6 1017.0 1016.9 0.2
28/10:30pm 17.4 16.5 12.7 74 2.6 NE 9 13 5 7 1017.5 1017.4 0.2
28/10:00pm 17.0 16.8 12.9 77 2.3 ENE 6 9 3 5 1018.1 1017.9 0.2
28/09:30pm 17.4 17.2 12.9 75 2.5 SE 6 7 3 4 1017.8 1017.7 0.2
28/09:00pm 17.5 18.3 12.7 73 2.7 CALM 0 0 0 0 1017.7 1017.6 0.2
28/08:30pm 17.9 17.7 13.1 73 2.7 S 6 9 3 5 1017.5 1017.4 0.2
28/08:00pm 17.2 17.0 13.7 80 2.0 SSW 7 11 4 6 1017.5 1017.4 0.2
28/07:30pm 20.0 19.2 11.7 59 4.6 NNE 7 11 4 6 1017.2 1017.1 0.2
28/07:00pm 19.3 18.2 12.1 63 4.0 N 9 11 5 6 1017.0 1016.9 0.2
28/06:30pm 20.4 21.0 11.8 57 4.8 CALM 0 0 0 0 1016.8 1016.7 0.2
28/06:00pm 20.5 20.4 12.1 58 4.7 NE 4 9 2 5 1016.6 1016.5 0.2
28/05:30pm 20.8 20.6 13.1 61 4.4 SSE 6 7 3 4 1016.6 1016.5 0.2
28/05:00pm 20.9 20.9 15.2 70 3.4 S 9 11 5 6 1016.5 1016.4 0.2
28/04:30pm 21.9 21.6 12.6 55 5.3 S 6 7 3 4 1016.5 1016.4 0.2
28/04:00pm 22.1 22.4 14.5 62 4.5 SSE 6 9 3 5 1016.7 1016.6 0.2
28/03:30pm 22.8 24.0 13.9 57 5.2 CALM 0 0 0 0 1017.0 1016.9 0.2
28/03:00pm 23.6 24.3 12.2 48 6.5 CALM 0 0 0 0 1016.9 1016.8 0.2
28/02:30pm 23.4 23.6 12.0 48 6.5 SSW 2 7 1 4 1017.1 1017.0 0.2
28/02:00pm 22.9 22.1 11.7 49 6.3 WSW 7 9 4 5 1017.3 1017.2 0.2
28/01:30pm 22.4 20.3 11.1 48 6.3 N 13 19 7 10 1017.5 1017.4 0.2
28/01:00pm 21.8 17.8 10.3 48 6.3 NNE 22 32 12 17 1017.7 1017.6 0.0
28/12:30pm 20.8 17.0 11.2 54 5.3 NNE 22 30 12 16 1017.8 1017.7 0.0
28/12:00pm 19.1 14.4 12.1 64 3.9 N 28 43 15 23 1017.8 1017.7 0.0
28/11:30am 19.0 14.5 11.4 61 4.2 N 26 32 14 17 1018.2 1018.0 0.0
28/11:00am 20.1 14.1 8.7 48 6.0 N 30 41 16 22 1018.2 1018.0 0.0
28/10:30am 20.3 13.3 8.5 46 6.2 N 35 41 19 22 1018.2 1018.0 0.0
28/10:00am 20.1 13.0 8.2 46 6.2 N 35 48 19 26 1018.6 1018.4 0.0
28/09:30am 19.2 12.7 8.2 49 5.7 N 32 39 17 21 1018.8 1018.6 0.0
28/09:00am 19.1 12.4 8.1 49 5.7 N 33 41 18 22 1018.6 1018.4 0.0

Other Formats:

Comma delimited format used in spreadsheet applications
http://www.bom.gov.au/fwo/IDV60801/IDV60801.94866.axf

JavaScript Object Notation format (JSON) in row-major order
http://www.bom.gov.au/fwo/IDV60801/IDV60801.94866.json